Time;durP1;ratioP1;P1;durP2;ratioP2;P2;SDS_P1;SDS_P2;PMS_P1;PMS_P2;Temp;Humidity;BMP_temperature;BMP_pressure;BME280_temperature;BME280_humidity;BME280_pressure;Samples;Min_cycle;Max_cycle;Signal;HPM_P1;HPM_P2
2022/08/15 00:00:40;;;;;;;7.55;4.65;;;;;;;;;;10583604;28;20040;-81
2022/08/15 00:05:47;;;;;;;6.63;3.85;;;;;;;;;;10583738;28;20131;-81
2022/08/15 00:10:51;;;;;;;7.22;4.15;;;;;;;;;;10577445;28;20044;-81
2022/08/15 00:16:16;;;;;;;7.18;3.70;;;;;;;;;;10585325;28;20043;-81
2022/08/15 00:21:22;;;;;;;5.97;3.83;;;;;;;;;;10583447;28;20872;-81
2022/08/15 00:26:26;;;;;;;6.60;3.78;;;;;;;;;;10586000;28;20066;-81
2022/08/15 00:31:53;;;;;;;5.47;4.17;;;;;;;;;;10600400;27;20087;-81
2022/08/15 00:36:57;;;;;;;7.57;3.88;;;;;;;;;;10587364;28;20477;-81
2022/08/15 00:42:01;;;;;;;8.18;4.25;;;;;;;;;;10586374;27;20096;-81
2022/08/15 00:47:08;;;;;;;9.30;4.30;;;;;;;;;;10589614;27;20040;-81
2022/08/15 00:52:13;;;;;;;5.20;3.40;;;;;;;;;;10590491;28;20039;-81
2022/08/15 00:57:30;;;;;;;6.07;3.88;;;;;;;;;;10588417;27;20068;-81
2022/08/15 01:02:56;;;;;;;7.05;3.90;;;;;;;;;;10595175;27;20047;-81
2022/08/15 01:08:00;;;;;;;8.70;3.70;;;;;;;;;;10593104;27;20469;-81
2022/08/15 01:13:06;;;;;;;6.45;3.85;;;;;;;;;;10590408;27;20066;-80
2022/08/15 01:18:33;;;;;;;7.57;4.20;;;;;;;;;;10582489;27;20047;-81
2022/08/15 01:24:01;;;;;;;5.32;3.67;;;;;;;;;;10584496;28;20238;-81
2022/08/15 01:29:22;;;;;;;5.70;3.30;;;;;;;;;;10595391;27;20120;-81
2022/08/15 01:34:39;;;;;;;8.23;4.20;;;;;;;;;;10584521;27;20065;-81
2022/08/15 01:39:53;;;;;;;5.43;3.60;;;;;;;;;;10587758;27;20048;-81
2022/08/15 01:45:07;;;;;;;5.63;3.78;;;;;;;;;;10589093;27;20031;-81
2022/08/15 01:50:25;;;;;;;7.30;3.38;;;;;;;;;;10586902;27;20043;-80
2022/08/15 01:55:36;;;;;;;6.88;3.63;;;;;;;;;;10583563;27;20300;-81
2022/08/15 02:00:52;;;;;;;7.57;3.80;;;;;;;;;;10588994;27;20076;-81
2022/08/15 02:05:56;;;;;;;6.90;3.65;;;;;;;;;;10587628;27;20092;-80
2022/08/15 02:10:59;;;;;;;;;;;;;;;;;;10588279;27;20401;-81
2022/08/15 02:16:04;;;;;;;3.75;2.47;;;;;;;;;;10587469;27;19919;-81
2022/08/15 02:21:12;;;;;;;6.07;3.97;;;;;;;;;;10593290;27;20437;-80
2022/08/15 02:26:15;;;;;;;;;;;;;;;;;;10589041;27;20046;-80
2022/08/15 02:31:30;;;;;;;3.75;2.38;;;;;;;;;;10589919;27;19920;-80
2022/08/15 02:36:37;;;;;;;5.60;3.08;;;;;;;;;;10592365;27;20040;-80
2022/08/15 02:41:56;;;;;;;5.03;3.70;;;;;;;;;;10590046;27;20038;-81
2022/08/15 02:47:07;;;;;;;7.68;3.80;;;;;;;;;;10586160;27;20429;-80
2022/08/15 02:52:11;;;;;;;5.68;3.22;;;;;;;;;;10584538;27;20036;-81
2022/08/15 02:57:23;;;;;;;6.55;3.67;;;;;;;;;;10582969;28;20209;-80
2022/08/15 03:02:29;;;;;;;4.85;3.10;;;;;;;;;;10586314;28;20058;-82
2022/08/15 03:07:44;;;;;;;4.30;2.90;;;;;;;;;;10585193;27;20058;-80
2022/08/15 03:12:47;;;;;;;;;;;;;;;;;;10586507;28;20058;-80
2022/08/15 03:17:52;;;;;;;4.78;2.45;;;;;;;;;;10581896;28;19919;-80
2022/08/15 03:22:56;;;;;;;5.88;3.40;;;;;;;;;;10586400;28;20033;-80
2022/08/15 03:27:59;;;;;;;5.20;3.10;;;;;;;;;;10583754;28;20039;-80
2022/08/15 03:33:19;;;;;;;7.50;3.58;;;;;;;;;;10600250;28;20044;-80
2022/08/15 03:38:41;;;;;;;9.50;3.75;;;;;;;;;;10604977;28;20048;-79
2022/08/15 03:43:56;;;;;;;5.70;3.53;;;;;;;;;;10595791;27;20055;-80
2022/08/15 03:49:01;;;;;;;5.50;2.95;;;;;;;;;;10589912;28;20107;-80
2022/08/15 03:54:12;;;;;;;4.65;2.85;;;;;;;;;;10583243;28;20435;-80
2022/08/15 03:59:27;;;;;;;4.28;2.38;;;;;;;;;;10587841;28;20107;-80
2022/08/15 04:04:43;;;;;;;4.93;2.67;;;;;;;;;;10588169;28;20061;-80
2022/08/15 04:09:47;;;;;;;6.03;2.80;;;;;;;;;;10577847;28;20040;-80
2022/08/15 04:14:51;;;;;;;7.85;3.33;;;;;;;;;;10589882;27;20131;-81
2022/08/15 04:19:57;;;;;;;4.50;2.65;;;;;;;;;;10587090;27;20028;-81
2022/08/15 04:25:00;;;;;;;5.93;3.33;;;;;;;;;;10588370;27;20102;-80
2022/08/15 04:30:13;;;;;;;2.80;2.15;;;;;;;;;;10583168;28;20483;-80
2022/08/15 04:35:20;;;;;;;5.63;2.78;;;;;;;;;;10594905;27;20032;-79
2022/08/15 04:40:23;;;;;;;4.38;2.42;;;;;;;;;;10587840;27;20051;-81
2022/08/15 04:45:46;;;;;;;5.13;2.08;;;;;;;;;;10590957;27;20043;-80
2022/08/15 04:50:56;;;;;;;6.35;3.05;;;;;;;;;;10588304;27;20048;-80
2022/08/15 04:56:01;;;;;;;4.78;2.65;;;;;;;;;;10592452;27;20432;-81
2022/08/15 05:01:06;;;;;;;9.32;2.92;;;;;;;;;;10597610;27;20267;-80
2022/08/15 05:06:18;;;;;;;4.20;2.60;;;;;;;;;;10588654;27;20077;-80
2022/08/15 05:11:33;;;;;;;4.70;2.80;;;;;;;;;;10588804;27;20522;-80
2022/08/15 05:16:55;;;;;;;6.20;3.13;;;;;;;;;;10592530;27;20488;-80
2022/08/15 05:22:00;;;;;;;4.50;2.88;;;;;;;;;;10581498;28;20374;-81
2022/08/15 05:27:05;;;;;;;4.60;2.38;;;;;;;;;;10586535;27;20064;-80
2022/08/15 05:32:11;;;;;;;6.35;2.90;;;;;;;;;;10583159;28;20043;-80
2022/08/15 05:37:22;;;;;;;4.80;2.25;;;;;;;;;;10588770;27;20047;-80
2022/08/15 05:42:48;;;;;;;3.30;2.10;;;;;;;;;;10585887;27;20031;-81
2022/08/15 05:47:57;;;;;;;5.28;2.67;;;;;;;;;;10588448;27;20063;-81
2022/08/15 05:53:06;;;;;;;2.75;1.90;;;;;;;;;;10587527;28;20039;-81
2022/08/15 05:58:15;;;;;;;6.03;2.42;;;;;;;;;;10590203;27;20028;-81
2022/08/15 06:03:41;;;;;;;5.32;2.70;;;;;;;;;;10592133;27;20034;-81
2022/08/15 06:08:47;;;;;;;3.03;2.15;;;;;;;;;;10585894;27;20040;-81
2022/08/15 06:14:08;;;;;;;4.22;2.08;;;;;;;;;;10595452;27;20039;-81
2022/08/15 06:19:21;;;;;;;3.97;2.30;;;;;;;;;;10588375;27;20131;-81
2022/08/15 06:24:31;;;;;;;3.67;1.80;;;;;;;;;;10588023;27;20051;-81
2022/08/15 06:29:44;;;;;;;2.90;1.60;;;;;;;;;;10587967;27;20066;-81
2022/08/15 06:34:59;;;;;;;4.00;2.00;;;;;;;;;;10585988;27;20094;-81
2022/08/15 06:40:07;;;;;;;2.42;2.00;;;;;;;;;;10587034;27;20054;-81
2022/08/15 06:45:15;;;;;;;3.53;2.00;;;;;;;;;;10590740;27;20028;-81
2022/08/15 06:50:20;;;;;;;3.05;1.67;;;;;;;;;;10584885;27;20043;-80
2022/08/15 06:55:33;;;;;;;1.83;1.17;;;;;;;;;;10589363;27;20035;-80
2022/08/15 07:00:40;;;;;;;2.33;1.58;;;;;;;;;;10589848;27;20039;-80
2022/08/15 07:05:54;;;;;;;3.60;1.77;;;;;;;;;;10585960;27;20045;-80
2022/08/15 07:11:02;;;;;;;4.88;1.80;;;;;;;;;;10581154;27;20036;-81
2022/08/15 07:16:08;;;;;;;1.63;1.38;;;;;;;;;;10588295;27;20032;-80
2022/08/15 07:21:23;;;;;;;2.70;1.92;;;;;;;;;;10583193;28;20044;-80
2022/08/15 07:26:49;;;;;;;1.60;1.10;;;;;;;;;;10582025;27;20051;-80
2022/08/15 07:31:59;;;;;;;2.42;1.70;;;;;;;;;;10588513;27;20055;-80
2022/08/15 07:37:22;;;;;;;2.80;1.23;;;;;;;;;;10584436;27;20035;-80
2022/08/15 07:42:27;;;;;;;3.42;1.73;;;;;;;;;;10585076;28;20046;-81
2022/08/15 07:47:54;;;;;;;2.78;1.90;;;;;;;;;;10582701;27;20054;-80
2022/08/15 07:53:04;;;;;;;3.45;2.42;;;;;;;;;;10582334;28;20027;-80
2022/08/15 07:58:21;;;;;;;1.27;1.17;;;;;;;;;;10578159;28;20199;-80
2022/08/15 08:03:32;;;;;;;2.08;1.30;;;;;;;;;;10582246;28;20054;-80
2022/08/15 08:08:39;;;;;;;1.48;1.17;;;;;;;;;;10579366;28;20363;-80
2022/08/15 08:13:56;;;;;;;1.90;1.42;;;;;;;;;;10580262;28;20073;-81
2022/08/15 08:19:03;;;;;;;3.10;1.30;;;;;;;;;;10575996;28;20493;-81
2022/08/15 08:24:14;;;;;;;3.35;2.10;;;;;;;;;;10584000;28;20044;-80
2022/08/15 08:29:25;;;;;;;3.70;2.22;;;;;;;;;;10588236;28;20051;-80
2022/08/15 08:34:34;;;;;;;3.38;2.00;;;;;;;;;;10588817;28;20078;-81
2022/08/15 08:45:48;;;;;;;4.60;1.98;;;;;;;;;;10585258;28;20078;-81
2022/08/15 08:51:03;;;;;;;3.83;1.95;;;;;;;;;;10586499;28;20138;-82
2022/08/15 08:56:14;;;;;;;2.50;1.80;;;;;;;;;;10579086;28;20046;-82
2022/08/15 09:01:38;;;;;;;4.57;2.10;;;;;;;;;;10584766;28;20054;-82
2022/08/15 09:06:43;;;;;;;2.22;2.03;;;;;;;;;;10592141;27;20036;-81
2022/08/15 09:11:50;;;;;;;2.55;1.48;;;;;;;;;;10590788;27;20221;-81
2022/08/15 09:17:00;;;;;;;3.45;2.08;;;;;;;;;;10596373;27;20062;-81
2022/08/15 09:22:25;;;;;;;3.10;2.10;;;;;;;;;;10606862;27;20035;-81
2022/08/15 09:27:32;;;;;;;6.03;2.22;;;;;;;;;;10599673;27;20177;-81
2022/08/15 09:33:03;;;;;;;3.08;2.25;;;;;;;;;;10591820;27;20125;-81
2022/08/15 09:38:15;;;;;;;2.85;1.45;;;;;;;;;;10590320;27;20043;-82
2022/08/15 09:43:44;;;;;;;3.67;2.30;;;;;;;;;;10597744;27;20040;-81
2022/08/15 09:49:00;;;;;;;3.80;2.80;;;;;;;;;;10588253;27;20073;-81
2022/08/15 09:54:07;;;;;;;4.18;2.03;;;;;;;;;;10594879;27;20431;-82
2022/08/15 09:59:35;;;;;;;3.60;1.67;;;;;;;;;;10593970;27;20084;-81
2022/08/15 10:05:01;;;;;;;3.08;2.03;;;;;;;;;;10590588;27;20318;-81
2022/08/15 10:10:11;;;;;;;3.25;2.17;;;;;;;;;;10584587;27;20063;-82
2022/08/15 10:15:32;;;;;;;3.45;2.33;;;;;;;;;;10593624;27;20051;-82
2022/08/15 10:20:54;;;;;;;3.28;2.33;;;;;;;;;;10587253;27;20107;-82
2022/08/15 10:26:15;;;;;;;1.63;1.52;;;;;;;;;;10587309;27;20102;-82
2022/08/15 10:31:49;;;;;;;4.15;2.42;;;;;;;;;;10591397;27;20046;-82
2022/08/15 10:37:17;;;;;;;4.70;2.77;;;;;;;;;;10585892;27;20035;-83
2022/08/15 10:42:30;;;;;;;3.10;2.72;;;;;;;;;;10587049;27;20746;-82
2022/08/15 10:47:43;;;;;;;2.95;2.45;;;;;;;;;;10584284;27;20036;-82
2022/08/15 10:53:08;;;;;;;3.20;2.15;;;;;;;;;;10583041;28;20046;-82
2022/08/15 10:58:16;;;;;;;3.03;2.72;;;;;;;;;;10584259;27;20039;-82
2022/08/15 11:03:27;;;;;;;2.83;2.22;;;;;;;;;;10583270;28;20104;-84
2022/08/15 11:08:51;;;;;;;4.40;3.53;;;;;;;;;;10577006;28;20040;-84
2022/08/15 11:13:57;;;;;;;2.50;2.30;;;;;;;;;;10590051;28;20066;-83
2022/08/15 11:19:02;;;;;;;3.00;2.70;;;;;;;;;;10587582;27;20036;-84
2022/08/15 11:24:06;;;;;;;3.78;3.22;;;;;;;;;;10585361;27;20166;-83
2022/08/15 11:29:17;;;;;;;2.90;2.58;;;;;;;;;;10589795;27;20055;-84
2022/08/15 11:34:22;;;;;;;1.70;1.60;;;;;;;;;;10588168;28;20040;-84
2022/08/15 11:39:50;;;;;;;2.58;2.05;;;;;;;;;;10586027;28;20039;-83
2022/08/15 11:44:57;;;;;;;2.10;1.90;;;;;;;;;;10587657;28;20056;-83
2022/08/15 11:50:01;;;;;;;3.25;2.75;;;;;;;;;;10590646;28;20118;-83
2022/08/15 11:55:11;;;;;;;2.55;2.10;;;;;;;;;;10587320;28;20100;-83
2022/08/15 12:00:23;;;;;;;4.00;2.08;;;;;;;;;;10582108;28;20036;-84
2022/08/15 12:05:31;;;;;;;1.75;1.55;;;;;;;;;;10583269;28;20225;-83
2022/08/15 12:11:02;;;;;;;2.60;1.92;;;;;;;;;;10580956;28;20031;-83
2022/08/15 12:16:25;;;;;;;2.47;2.13;;;;;;;;;;10580658;28;20545;-83
2022/08/15 12:21:32;;;;;;;4.47;2.13;;;;;;;;;;10579195;28;20059;-86
2022/08/15 12:26:41;;;;;;;1.98;1.75;;;;;;;;;;10586886;28;20036;-82
2022/08/15 12:32:09;;;;;;;1.88;1.63;;;;;;;;;;10586172;28;20535;-82
2022/08/15 12:37:35;;;;;;;2.90;2.35;;;;;;;;;;10583348;27;20120;-82
2022/08/15 12:42:53;;;;;;;2.28;2.05;;;;;;;;;;10590841;27;20449;-83
2022/08/15 12:48:04;;;;;;;4.00;1.60;;;;;;;;;;10589525;27;20093;-83
2022/08/15 12:53:10;;;;;;;1.95;1.77;;;;;;;;;;10595093;28;20039;-81
2022/08/15 12:58:19;;;;;;;3.03;2.10;;;;;;;;;;10596250;27;20121;-82
2022/08/15 13:03:29;;;;;;;3.83;2.50;;;;;;;;;;10591491;27;20110;-83
2022/08/15 13:08:51;;;;;;;2.60;2.35;;;;;;;;;;10588019;27;20123;-83
2022/08/15 13:13:55;;;;;;;2.72;2.20;;;;;;;;;;10590668;27;20598;-84
2022/08/15 13:19:01;;;;;;;3.40;1.88;;;;;;;;;;10585249;28;20257;-83
2022/08/15 13:24:09;;;;;;;3.27;2.30;;;;;;;;;;10586270;27;20047;-82
2022/08/15 13:29:20;;;;;;;4.15;2.58;;;;;;;;;;10587708;28;20032;-82
2022/08/15 13:34:25;;;;;;;5.63;2.47;;;;;;;;;;10591719;27;20476;-82
2022/08/15 13:39:31;;;;;;;2.42;2.10;;;;;;;;;;10600674;27;20041;-83
2022/08/15 13:44:40;;;;;;;3.13;2.00;;;;;;;;;;10615555;28;20024;-83
2022/08/15 13:49:44;;;;;;;5.25;2.42;;;;;;;;;;10597505;28;20107;-83
2022/08/15 13:54:51;;;;;;;3.70;2.28;;;;;;;;;;10591770;27;20386;-82
2022/08/15 14:00:01;;;;;;;2.53;2.10;;;;;;;;;;10587570;27;20046;-82
2022/08/15 14:05:25;;;;;;;3.45;2.05;;;;;;;;;;10590188;28;20055;-83
2022/08/15 14:10:37;;;;;;;2.58;2.20;;;;;;;;;;10586242;27;20027;-82
2022/08/15 14:16:00;;;;;;;4.15;2.28;;;;;;;;;;10590084;28;20118;-83
2022/08/15 14:21:25;;;;;;;2.33;2.00;;;;;;;;;;10586048;27;20107;-83
2022/08/15 14:26:31;;;;;;;3.70;2.30;;;;;;;;;;10584052;28;20238;-83
2022/08/15 14:31:54;;;;;;;3.78;2.17;;;;;;;;;;10590333;28;20031;-83
2022/08/15 14:37:02;;;;;;;3.65;2.15;;;;;;;;;;10586156;27;20036;-83
2022/08/15 14:42:12;;;;;;;2.58;2.20;;;;;;;;;;10578416;27;20028;-83
2022/08/15 14:47:24;;;;;;;4.03;2.38;;;;;;;;;;10586126;27;20040;-83
2022/08/15 14:52:31;;;;;;;3.47;2.80;;;;;;;;;;10587869;28;20130;-84
2022/08/15 14:57:34;;;;;;;3.45;2.25;;;;;;;;;;10580744;27;20032;-83
2022/08/15 15:02:56;;;;;;;3.45;2.15;;;;;;;;;;10583411;28;20407;-82
2022/08/15 15:08:04;;;;;;;2.97;2.13;;;;;;;;;;10582435;27;20246;-82
2022/08/15 15:13:23;;;;;;;3.33;2.38;;;;;;;;;;10586341;27;20051;-83
2022/08/15 15:18:28;;;;;;;2.72;2.10;;;;;;;;;;10584826;27;20137;-83
2022/08/15 15:23:50;;;;;;;4.43;2.50;;;;;;;;;;10583610;28;20039;-83
2022/08/15 15:28:53;;;;;;;4.60;2.63;;;;;;;;;;10581875;28;20039;-85
2022/08/15 15:34:00;;;;;;;3.03;2.00;;;;;;;;;;10584014;28;20117;-84
2022/08/15 15:39:23;;;;;;;3.50;2.45;;;;;;;;;;10582680;28;20214;-83
2022/08/15 15:44:54;;;;;;;8.73;5.35;;;;;;;;;;10579672;28;20047;-84
2022/08/15 15:50:07;;;;;;;5.85;2.15;;;;;;;;;;10582358;28;20092;-83
2022/08/15 15:55:31;;;;;;;4.03;1.85;;;;;;;;;;10591820;27;20472;-83
2022/08/15 16:00:36;;;;;;;3.90;2.47;;;;;;;;;;10584068;28;20398;-83
2022/08/15 16:05:53;;;;;;;4.60;2.15;;;;;;;;;;10563986;28;20040;-84
2022/08/15 16:11:27;;;;;;;3.38;2.10;;;;;;;;;;10575523;28;20031;-85
2022/08/15 16:16:59;;;;;;;4.90;2.70;;;;;;;;;;10582937;27;20270;-84
2022/08/15 16:22:14;;;;;;;3.20;2.10;;;;;;;;;;10584260;28;20067;-88
2022/08/15 16:27:32;;;;;;;3.35;1.90;;;;;;;;;;10589509;27;20032;-82
2022/08/15 16:32:41;;;;;;;3.65;1.77;;;;;;;;;;10586583;27;20040;-78
2022/08/15 16:37:49;;;;;;;3.05;1.92;;;;;;;;;;10815170;22;20050;-80
2022/08/15 16:42:56;;;;;;;3.40;2.17;;;;;;;;;;10592511;27;20064;-77
2022/08/15 16:48:04;;;;;;;2.05;1.77;;;;;;;;;;10593970;27;20127;-77
2022/08/15 16:53:15;;;;;;;2.95;1.77;;;;;;;;;;10590275;27;20036;-76
2022/08/15 16:58:29;;;;;;;4.25;2.15;;;;;;;;;;10606153;27;20027;-78
2022/08/15 17:03:58;;;;;;;3.83;2.40;;;;;;;;;;10584131;28;20495;-78
2022/08/15 17:09:19;;;;;;;3.33;1.85;;;;;;;;;;10598797;27;20043;-78
2022/08/15 17:14:32;;;;;;;1.25;1.08;;;;;;;;;;10594206;27;20338;-77
2022/08/15 17:19:58;;;;;;;2.72;1.60;;;;;;;;;;10588802;28;20032;-78
2022/08/15 17:25:04;;;;;;;2.90;1.85;;;;;;;;;;10580847;28;20310;-78
2022/08/15 17:30:17;;;;;;;5.32;2.15;;;;;;;;;;10602022;27;20799;-78
2022/08/15 17:35:40;;;;;;;4.28;1.20;;;;;;;;;;10584082;27;20028;-78
2022/08/15 17:40:46;;;;;;;2.03;1.50;;;;;;;;;;10587818;28;20122;-78
2022/08/15 17:45:53;;;;;;;2.95;1.60;;;;;;;;;;10599858;28;20187;-77
2022/08/15 17:50:59;;;;;;;2.95;2.03;;;;;;;;;;10592116;27;20046;-78
2022/08/15 17:56:14;;;;;;;2.15;1.50;;;;;;;;;;10589970;28;20146;-78
2022/08/15 18:01:29;;;;;;;2.47;1.95;;;;;;;;;;10586499;28;20027;-76
2022/08/15 18:06:33;;;;;;;3.47;1.80;;;;;;;;;;10587089;27;20059;-78
2022/08/15 18:11:38;;;;;;;4.15;1.88;;;;;;;;;;10584163;27;20100;-78
2022/08/15 18:16:51;;;;;;;3.63;1.95;;;;;;;;;;10589530;28;20051;-77
2022/08/15 18:21:55;;;;;;;5.65;2.20;;;;;;;;;;10582204;28;20028;-78
2022/08/15 18:27:02;;;;;;;5.00;2.05;;;;;;;;;;10581997;28;20062;-78
2022/08/15 18:32:16;;;;;;;4.80;2.22;;;;;;;;;;10594966;28;20439;-77
2022/08/15 18:37:24;;;;;;;3.90;1.85;;;;;;;;;;10584220;27;20513;-76
2022/08/15 18:42:31;;;;;;;4.38;2.03;;;;;;;;;;10571602;27;20387;-77
2022/08/15 18:47:43;;;;;;;3.58;2.05;;;;;;;;;;10589791;27;20051;-76
2022/08/15 18:52:48;;;;;;;3.60;1.92;;;;;;;;;;10587532;27;20042;-77
2022/08/15 18:57:51;;;;;;;3.65;2.25;;;;;;;;;;10581866;27;20058;-78
2022/08/15 19:03:00;;;;;;;3.60;2.00;;;;;;;;;;10583063;27;20134;-77
2022/08/15 19:08:07;;;;;;;5.25;2.25;;;;;;;;;;10587055;27;20752;-76
2022/08/15 19:13:32;;;;;;;2.38;1.52;;;;;;;;;;10581375;28;20048;-77
2022/08/15 19:18:49;;;;;;;4.28;2.00;;;;;;;;;;10588741;28;20039;-77
2022/08/15 19:23:58;;;;;;;4.22;2.08;;;;;;;;;;10592702;27;20028;-76
2022/08/15 19:29:07;;;;;;;3.50;1.67;;;;;;;;;;10587118;27;20420;-77
2022/08/15 19:34:20;;;;;;;6.57;2.63;;;;;;;;;;10587443;27;20054;-78
2022/08/15 19:39:29;;;;;;;4.35;2.42;;;;;;;;;;10588917;27;20047;-79
2022/08/15 19:44:52;;;;;;;3.60;2.10;;;;;;;;;;10601948;27;20132;-80
2022/08/15 19:55:33;;;;;;;5.10;2.42;;;;;;;;;;10603243;27;20047;-77
2022/08/15 20:00:48;;;;;;;1.30;1.10;;;;;;;;;;10586586;28;20043;-78
2022/08/15 20:05:57;;;;;;;1.50;1.05;;;;;;;;;;10595344;28;20070;-78
2022/08/15 20:11:15;;;;;;;0.80;0.75;;;;;;;;;;10594326;28;20050;-78
2022/08/15 20:16:24;;;;;;;1.02;0.90;;;;;;;;;;10597262;27;20043;-78
2022/08/15 20:21:51;;;;;;;2.97;1.17;;;;;;;;;;10584339;28;20042;-77
2022/08/15 20:27:08;;;;;;;1.77;1.35;;;;;;;;;;10586941;28;20052;-78
2022/08/15 20:32:15;;;;;;;2.08;1.10;;;;;;;;;;10586305;28;20043;-77
2022/08/15 20:37:42;;;;;;;2.05;1.25;;;;;;;;;;10574919;28;20066;-77
2022/08/15 20:42:50;;;;;;;2.30;1.20;;;;;;;;;;10584340;28;20051;-79
2022/08/15 20:47:56;;;;;;;2.70;1.35;;;;;;;;;;10591137;28;20047;-77
2022/08/15 20:53:20;;;;;;;1.27;0.98;;;;;;;;;;10592305;28;20040;-77
2022/08/15 20:58:57;;;;;;;1.27;0.88;;;;;;;;;;10579899;27;20124;-77
2022/08/15 21:04:05;;;;;;;2.45;1.30;;;;;;;;;;10591362;27;20081;-78
2022/08/15 21:09:37;;;;;;;1.50;1.02;;;;;;;;;;10594132;27;20046;-77
2022/08/15 21:14:46;;;;;;;4.32;1.05;;;;;;;;;;10585303;27;20106;-77
2022/08/15 21:20:22;;;;;;;1.52;0.90;;;;;;;;;;10593314;27;20028;-77
2022/08/15 21:25:47;;;;;;;2.35;1.30;;;;;;;;;;10591632;27;20051;-78
2022/08/15 21:30:53;;;;;;;1.08;0.90;;;;;;;;;;10588543;27;20095;-79
2022/08/15 21:36:19;;;;;;;1.40;0.82;;;;;;;;;;10583861;27;20111;-77
2022/08/15 21:41:49;;;;;;;1.95;1.25;;;;;;;;;;10592125;27;20039;-77
2022/08/15 21:47:05;;;;;;;1.88;1.30;;;;;;;;;;10591702;27;20492;-77
2022/08/15 21:52:09;;;;;;;1.13;0.50;;;;;;;;;;10588323;27;20507;-77
2022/08/15 21:57:21;;;;;;;1.30;1.00;;;;;;;;;;10589164;27;20089;-76
2022/08/15 22:02:28;;;;;;;0.88;0.80;;;;;;;;;;10588688;27;20063;-77
2022/08/15 22:07:36;;;;;;;0.90;0.90;;;;;;;;;;10587934;27;20498;-77
2022/08/15 22:12:46;;;;;;;2.22;0.85;;;;;;;;;;10590604;27;20933;-76
2022/08/15 22:17:50;;;;;;;1.15;1.00;;;;;;;;;;10585547;27;20071;-77
2022/08/15 22:22:59;;;;;;;1.30;0.85;;;;;;;;;;10592756;27;20693;-76
2022/08/15 22:28:05;;;;;;;1.52;0.98;;;;;;;;;;10593366;27;20035;-77
2022/08/15 22:33:29;;;;;;;2.60;0.77;;;;;;;;;;10587728;27;20093;-76
2022/08/15 22:38:39;;;;;;;1.52;1.15;;;;;;;;;;10587643;27;20047;-77
2022/08/15 22:43:46;;;;;;;1.83;1.10;;;;;;;;;;10588314;27;20085;-76
2022/08/15 22:48:49;;;;;;;3.20;1.50;;;;;;;;;;10598303;27;20209;-77
2022/08/15 22:54:01;;;;;;;2.22;1.40;;;;;;;;;;10587536;28;20032;-77
2022/08/15 22:59:08;;;;;;;2.50;1.48;;;;;;;;;;10598280;27;20112;-77
2022/08/15 23:04:14;;;;;;;1.88;1.13;;;;;;;;;;10593046;27;20036;-77
2022/08/15 23:09:38;;;;;;;1.98;1.33;;;;;;;;;;10591122;27;20105;-76
2022/08/15 23:14:46;;;;;;;1.80;1.30;;;;;;;;;;10592766;27;20051;-77
2022/08/15 23:19:57;;;;;;;2.70;0.80;;;;;;;;;;10581771;27;20036;-76
2022/08/15 23:25:03;;;;;;;1.73;1.30;;;;;;;;;;10580767;27;20063;-77
2022/08/15 23:30:12;;;;;;;3.30;1.40;;;;;;;;;;10586487;28;20463;-77
2022/08/15 23:35:36;;;;;;;4.03;1.75;;;;;;;;;;10585010;27;20230;-77
2022/08/15 23:40:42;;;;;;;2.35;1.83;;;;;;;;;;10583163;27;20089;-74
2022/08/15 23:45:53;;;;;;;3.28;1.80;;;;;;;;;;10581557;27;20052;-73
2022/08/15 23:50:56;;;;;;;2.50;1.52;;;;;;;;;;10595185;27;20039;-73
2022/08/15 23:56:02;;;;;;;2.13;1.63;;;;;;;;;;10582134;28;20046;-72
